createdAt,value
2017-12-10T00:00:09.137Z,26.2
2017-12-10T00:02:11.019Z,26.3
2017-12-10T00:04:06.026Z,26.3
2017-12-10T00:06:05.814Z,26.2
2017-12-10T00:08:08.190Z,26.4
2017-12-10T00:10:06.173Z,26.3
2017-12-10T00:12:05.698Z,26.3
2017-12-10T00:14:05.083Z,26.2
2017-12-10T00:16:05.863Z,26.2
2017-12-10T00:18:05.918Z,26.2
2017-12-10T00:20:05.756Z,26.2
2017-12-10T00:22:10.111Z,26.2
2017-12-10T00:24:05.924Z,26.2
2017-12-10T00:26:05.945Z,26.2
2017-12-10T00:28:05.723Z,26.1
2017-12-10T00:30:05.510Z,26.1
2017-12-10T00:32:07.771Z,26.1
2017-12-10T00:34:06.534Z,26.1
2017-12-10T00:36:05.286Z,26.1
2017-12-10T00:38:05.490Z,26.1
2017-12-10T00:40:10.428Z,26.1
2017-12-10T00:42:05.394Z,26.1
2017-12-10T00:44:07.758Z,26.1
2017-12-10T00:46:05.512Z,26
2017-12-10T00:48:05.771Z,26.1
2017-12-10T00:50:05.976Z,26
2017-12-10T00:52:06.986Z,26
2017-12-10T00:54:05.975Z,26
2017-12-10T00:56:05.782Z,26.1
2017-12-10T00:58:05.804Z,26
2017-12-10T01:00:06.004Z,26
2017-12-10T01:02:05.895Z,25.9
2017-12-10T01:04:05.770Z,26
2017-12-10T01:06:05.728Z,26.1
2017-12-10T01:08:05.495Z,26
2017-12-10T01:10:05.570Z,25.8
2017-12-10T01:12:05.401Z,25.9
2017-12-10T01:14:05.183Z,25.9
2017-12-10T01:16:05.900Z,25.9
2017-12-10T01:18:08.413Z,25.8
2017-12-10T01:20:07.668Z,25.8
2017-12-10T01:22:05.484Z,25.9
2017-12-10T01:24:05.257Z,25.9
2017-12-10T01:26:06.049Z,25.8
2017-12-10T01:28:05.832Z,25.9
2017-12-10T01:30:05.590Z,25.9
2017-12-10T01:32:05.408Z,25.9
2017-12-10T01:34:05.196Z,26
2017-12-10T01:36:09.534Z,25.9
2017-12-10T01:38:05.242Z,25.9
2017-12-10T01:40:05.212Z,26
2017-12-10T01:42:06.083Z,25.9
2017-12-10T01:44:05.857Z,25.9
2017-12-10T01:46:05.619Z,25.9
2017-12-10T01:48:06.071Z,25.9
2017-12-10T01:50:05.820Z,25.8
2017-12-10T01:52:05.562Z,25.8
2017-12-10T01:54:05.991Z,25.9
2017-12-10T01:56:05.876Z,25.9
2017-12-10T01:58:05.602Z,25.9
2017-12-10T02:00:05.925Z,25.9
2017-12-10T02:02:05.727Z,25.9
2017-12-10T02:04:05.678Z,25.7
2017-12-10T02:06:05.464Z,25.7
2017-12-10T02:08:07.807Z,25.8
2017-12-10T02:10:07.666Z,25.7
2017-12-10T02:12:05.424Z,25.7
2017-12-10T02:14:12.855Z,25.6
2017-12-10T02:16:06.006Z,25.6
2017-12-10T02:18:05.972Z,25.6
2017-12-10T02:20:05.692Z,25.6
2017-12-10T02:22:05.455Z,25.7
2017-12-10T02:24:05.272Z,25.8
2017-12-10T02:26:06.094Z,25.7
2017-12-10T02:28:05.812Z,25.7
2017-12-10T02:30:08.213Z,25.7
2017-12-10T02:32:08.786Z,25.7
2017-12-10T02:34:05.613Z,25.7
2017-12-10T02:36:06.990Z,25.7
2017-12-10T02:38:10.820Z,25.8
2017-12-10T02:40:05.600Z,25.7
2017-12-10T02:42:05.916Z,25.6
2017-12-10T02:44:05.771Z,25.7
2017-12-10T02:46:05.515Z,25.6
2017-12-10T02:48:05.383Z,25.6
2017-12-10T02:50:05.373Z,25.6
2017-12-10T02:52:05.362Z,25.5
2017-12-10T02:54:05.075Z,25.5
2017-12-10T02:56:05.407Z,25.5
2017-12-10T02:58:05.464Z,25.6
2017-12-10T03:00:05.218Z,25.5
2017-12-10T03:02:08.636Z,25.5
2017-12-10T03:04:05.376Z,25.5
2017-12-10T03:06:05.438Z,25.5
2017-12-10T03:08:05.311Z,25.5
2017-12-10T03:10:05.359Z,25.5
2017-12-10T03:12:07.624Z,25.4
2017-12-10T03:14:05.967Z,25.4
2017-12-10T03:16:08.063Z,25.5
2017-12-10T03:18:06.004Z,25.5
2017-12-10T03:20:05.781Z,25.5
2017-12-10T03:22:05.560Z,25.5
2017-12-10T03:24:05.420Z,25.5
2017-12-10T03:26:05.721Z,25.3
2017-12-10T03:28:08.328Z,25.4
2017-12-10T03:30:05.058Z,25.4
2017-12-10T03:32:05.844Z,25.5
2017-12-10T03:34:05.590Z,25.5
2017-12-10T03:36:06.343Z,25.3
2017-12-10T03:38:06.076Z,25.4
2017-12-10T03:40:05.833Z,25.3
2017-12-10T03:42:05.546Z,25.4
2017-12-10T03:44:05.331Z,25.4
2017-12-10T03:46:07.631Z,25.4
2017-12-10T03:48:05.471Z,25.4
2017-12-10T03:50:10.329Z,25.2
2017-12-10T03:52:07.587Z,25.3
2017-12-10T03:54:05.560Z,25.3
2017-12-10T03:56:05.330Z,25.3
2017-12-10T03:58:10.137Z,25.2
2017-12-10T04:00:05.884Z,25.2
2017-12-10T04:02:05.643Z,25.3
2017-12-10T04:04:07.929Z,25.2
2017-12-10T04:06:05.675Z,25.2
2017-12-10T04:08:05.431Z,25.4
2017-12-10T04:10:05.703Z,25.3
2017-12-10T04:12:05.488Z,25.4
2017-12-10T04:14:05.209Z,25.3
2017-12-10T04:16:08.542Z,25.3
2017-12-10T04:18:05.494Z,25.4
2017-12-10T04:20:07.803Z,25.3
2017-12-10T04:22:08.079Z,25.4
2017-12-10T04:24:05.456Z,25.4
2017-12-10T04:26:05.352Z,25.3
2017-12-10T04:28:10.157Z,25.3
2017-12-10T04:30:11.018Z,25.3
2017-12-10T04:32:05.878Z,25.3
2017-12-10T04:34:05.604Z,25.3
2017-12-10T04:36:05.343Z,25.2
2017-12-10T04:38:07.625Z,25.3
2017-12-10T04:40:07.910Z,25.1
2017-12-10T04:42:05.768Z,25.1
2017-12-10T04:44:05.527Z,25.1
2017-12-10T04:46:05.323Z,25.1
2017-12-10T04:48:05.079Z,25.1
2017-12-10T04:50:05.848Z,25.1
2017-12-10T04:52:05.628Z,25.2
2017-12-10T04:54:10.488Z,25.2
2017-12-10T04:56:07.784Z,25.2
2017-12-10T04:58:10.557Z,25.2
2017-12-10T05:00:05.325Z,25.2
2017-12-10T05:02:05.171Z,25.2
2017-12-10T05:04:05.954Z,25.2
2017-12-10T05:06:08.254Z,25.2
2017-12-10T05:08:06.046Z,25.2
2017-12-10T05:10:08.316Z,25.2
2017-12-10T05:12:07.610Z,25.2
2017-12-10T05:14:10.472Z,25.1
2017-12-10T05:16:05.276Z,25.1
2017-12-10T05:18:05.466Z,25.1
2017-12-10T05:20:05.261Z,25
2017-12-10T05:22:06.045Z,25.1
2017-12-10T05:24:10.922Z,25.2
2017-12-10T05:26:05.710Z,25.2
2017-12-10T05:28:05.501Z,25.2
2017-12-10T05:30:05.477Z,25.2
2017-12-10T05:32:05.243Z,25.2
2017-12-10T05:34:06.044Z,25.1
2017-12-10T05:36:10.926Z,25.2
2017-12-10T05:38:08.259Z,25.2
2017-12-10T05:40:06.052Z,25.2
2017-12-10T05:42:05.830Z,25.2
2017-12-10T05:44:05.686Z,25.1
2017-12-10T05:46:05.436Z,25.2
2017-12-10T05:48:05.713Z,25.2
2017-12-10T05:50:05.509Z,25.2
2017-12-10T05:52:11.404Z,25.2
2017-12-10T05:54:05.639Z,25.2
2017-12-10T05:56:05.433Z,25.2
2017-12-10T05:58:05.215Z,25.3
2017-12-10T06:00:11.013Z,25.3
2017-12-10T06:02:10.810Z,25.2
2017-12-10T06:04:05.554Z,25.2
2017-12-10T06:06:05.303Z,25.2
2017-12-10T06:08:05.584Z,25.2
2017-12-10T06:10:05.337Z,25.3
2017-12-10T06:12:05.109Z,25.3
2017-12-10T06:14:05.905Z,25.2
2017-12-10T06:16:05.667Z,25.3
2017-12-10T06:18:05.689Z,25.4
2017-12-10T06:20:07.985Z,25.3
2017-12-10T06:22:10.988Z,25.4
2017-12-10T06:24:08.304Z,25.2
2017-12-10T06:26:08.182Z,25.2
2017-12-10T06:28:08.519Z,25.4
2017-12-10T06:30:05.827Z,25.4
2017-12-10T06:32:05.592Z,25.3
2017-12-10T06:34:07.895Z,25.4
2017-12-10T06:36:05.614Z,25.4
2017-12-10T06:38:05.355Z,25.4
2017-12-10T06:40:05.143Z,25.5
2017-12-10T06:42:05.880Z,25.5
2017-12-10T06:44:05.670Z,25.5
2017-12-10T06:46:05.392Z,25.4
2017-12-10T06:48:05.224Z,25.4
2017-12-10T06:50:06.020Z,25.4
2017-12-10T06:52:05.285Z,25.4
2017-12-10T06:54:06.149Z,25.4
2017-12-10T06:56:05.900Z,25.3
2017-12-10T06:58:08.238Z,25.3
2017-12-10T07:00:06.049Z,25.3
2017-12-10T07:02:08.366Z,25.4
2017-12-10T07:04:05.167Z,25.4
2017-12-10T07:06:05.960Z,25.5
2017-12-10T07:08:08.356Z,25.4
2017-12-10T07:10:05.078Z,25.4
2017-12-10T07:12:05.862Z,25.4
2017-12-10T07:14:05.777Z,25.5
2017-12-10T07:16:05.612Z,25.6
2017-12-10T07:18:05.684Z,25.5
2017-12-10T07:20:05.445Z,25.6
2017-12-10T07:22:05.205Z,25.5
2017-12-10T07:24:13.521Z,25.6
2017-12-10T07:26:05.378Z,25.5
2017-12-10T07:28:05.699Z,25.5
2017-12-10T07:30:08.500Z,25.5
2017-12-10T07:32:10.864Z,25.5
2017-12-10T07:34:05.625Z,25.5
2017-12-10T07:36:05.377Z,25.5
2017-12-10T07:38:05.175Z,25.5
2017-12-10T07:40:05.923Z,25.5
2017-12-10T07:42:05.765Z,25.5
2017-12-10T07:44:05.718Z,25.5
2017-12-10T07:46:05.538Z,25.5
2017-12-10T07:48:05.300Z,25.5
2017-12-10T07:50:12.819Z,25.5
2017-12-10T07:52:08.084Z,25.5
2017-12-10T07:54:05.904Z,25.5
2017-12-10T07:56:05.722Z,25.5
2017-12-10T07:58:06.043Z,25.5
2017-12-10T08:00:05.801Z,25.5
2017-12-10T08:02:05.052Z,25.5
2017-12-10T08:04:05.756Z,25.5
2017-12-10T08:06:10.618Z,25.5
2017-12-10T08:08:05.375Z,25.5
2017-12-10T08:10:07.770Z,25.6
2017-12-10T08:12:05.507Z,25.6
2017-12-10T08:14:05.277Z,25.6
2017-12-10T08:16:07.657Z,25.5
2017-12-10T08:18:05.595Z,25.5
2017-12-10T08:20:05.401Z,25.5
2017-12-10T08:22:05.255Z,25.5
2017-12-10T08:24:05.961Z,25.6
2017-12-10T08:26:05.752Z,25.5
2017-12-10T08:28:05.619Z,25.5
2017-12-10T08:30:05.571Z,25.6
2017-12-10T08:32:05.322Z,25.6
2017-12-10T08:34:05.074Z,25.6
2017-12-10T08:36:06.810Z,25.6
2017-12-10T08:38:07.922Z,25.7
2017-12-10T08:40:08.239Z,25.6
2017-12-10T08:42:06.044Z,25.6
2017-12-10T08:44:05.860Z,25.6
2017-12-10T08:46:07.671Z,25.6
2017-12-10T08:48:10.995Z,25.6
2017-12-10T08:50:05.754Z,25.6
2017-12-10T08:52:05.549Z,25.6
2017-12-10T08:54:05.368Z,25.7
2017-12-10T08:56:05.111Z,25.8
2017-12-10T08:58:07.215Z,25.7
2017-12-10T09:00:06.116Z,25.6
2017-12-10T09:02:05.648Z,25.8
2017-12-10T09:04:05.389Z,25.8
2017-12-10T09:06:09.815Z,25.8
2017-12-10T09:08:05.964Z,25.8
2017-12-10T09:10:06.008Z,25.8
2017-12-10T09:12:05.517Z,25.7
2017-12-10T09:14:05.496Z,25.9
2017-12-10T09:16:12.857Z,25.9
2017-12-10T09:18:11.040Z,25.8
2017-12-10T09:20:05.696Z,25.8
2017-12-10T09:22:05.455Z,25.8
2017-12-10T09:24:05.073Z,25.7
2017-12-10T09:26:05.887Z,25.7
2017-12-10T09:28:05.664Z,25.9
2017-12-10T09:30:05.928Z,25.9
2017-12-10T09:32:15.650Z,25.7
2017-12-10T09:34:07.901Z,25.9
2017-12-10T09:36:05.286Z,25.9
2017-12-10T09:38:06.095Z,25.9
2017-12-10T09:40:05.794Z,25.9
2017-12-10T09:42:10.869Z,25.9
2017-12-10T09:44:05.911Z,25.9
2017-12-10T09:46:06.920Z,25.9
2017-12-10T09:48:05.222Z,25.9
2017-12-10T09:50:06.047Z,26
2017-12-10T09:52:05.808Z,25.9
2017-12-10T09:54:09.596Z,25.9
2017-12-10T09:56:06.522Z,25.9
2017-12-10T09:58:18.144Z,25.9
2017-12-10T10:00:05.904Z,25.9
2017-12-10T10:02:05.787Z,26.1
2017-12-10T10:04:08.544Z,26
2017-12-10T10:06:12.250Z,26
2017-12-10T10:08:05.811Z,26
2017-12-10T10:10:05.975Z,26
2017-12-10T10:12:05.697Z,26
2017-12-10T10:14:05.452Z,26
2017-12-10T10:16:05.186Z,25.9
2017-12-10T10:18:08.556Z,26.1
2017-12-10T10:20:05.651Z,26.1
2017-12-10T10:22:10.693Z,26.1
2017-12-10T10:24:05.650Z,26
2017-12-10T10:26:05.486Z,26
2017-12-10T10:28:06.158Z,26
2017-12-10T10:30:08.189Z,26
2017-12-10T10:32:05.158Z,26
2017-12-10T10:34:05.671Z,26
2017-12-10T10:36:05.907Z,26.2
2017-12-10T10:38:05.604Z,26.1
2017-12-10T10:40:15.621Z,26.1
2017-12-10T10:42:06.350Z,26
2017-12-10T10:44:07.796Z,26.1
2017-12-10T10:46:08.112Z,26.1
2017-12-10T10:48:05.995Z,26.2
2017-12-10T10:50:05.791Z,26.2
2017-12-10T10:52:05.802Z,26.2
2017-12-10T10:54:10.592Z,26.1
2017-12-10T10:56:06.136Z,26.2
2017-12-10T10:58:05.865Z,26.1
2017-12-10T11:00:07.094Z,26
2017-12-10T11:02:09.638Z,26
2017-12-10T11:04:07.163Z,26
2017-12-10T11:06:06.110Z,26.2
2017-12-10T11:08:05.082Z,26.2
2017-12-10T11:10:15.349Z,26.3
2017-12-10T11:12:06.626Z,26.3
2017-12-10T11:14:10.460Z,26.2
2017-12-10T11:16:05.448Z,26.2
2017-12-10T11:18:05.664Z,26.2
2017-12-10T11:20:05.879Z,26.2
2017-12-10T11:22:05.713Z,26.1
2017-12-10T11:24:05.508Z,26.3
2017-12-10T11:26:06.034Z,26.3
2017-12-10T11:28:07.450Z,26.3
2017-12-10T11:30:06.192Z,26.3
2017-12-10T11:32:07.657Z,26.3
2017-12-10T11:34:05.419Z,26.3
2017-12-10T11:36:06.752Z,26.3
2017-12-10T11:38:05.498Z,26.2
2017-12-10T11:40:05.830Z,26.3
2017-12-10T11:42:05.819Z,26.2
2017-12-10T11:44:05.854Z,26.4
2017-12-10T11:46:05.572Z,26.4
2017-12-10T11:48:05.310Z,26.4
2017-12-10T11:50:11.626Z,26.3
2017-12-10T11:52:06.449Z,26.3
2017-12-10T11:54:05.598Z,26.3
2017-12-10T11:56:14.365Z,26.3
2017-12-10T11:58:15.099Z,26.3
2017-12-10T12:00:05.667Z,26.4
2017-12-10T12:02:05.466Z,26.4
2017-12-10T12:04:08.146Z,26.4
2017-12-10T12:06:06.085Z,26.4
2017-12-10T12:08:05.309Z,26.4
2017-12-10T12:10:05.035Z,26.4
2017-12-10T12:12:05.777Z,26.4
2017-12-10T12:14:05.528Z,26.4
2017-12-10T12:16:05.236Z,26.4
2017-12-10T12:18:05.211Z,26.4
2017-12-10T12:20:05.522Z,26.4
2017-12-10T12:22:05.308Z,26.4
2017-12-10T12:24:05.226Z,26.4
2017-12-10T12:26:08.102Z,26.4
2017-12-10T12:28:05.825Z,26.4
2017-12-10T12:30:13.394Z,26.4
2017-12-10T12:32:05.766Z,26.4
2017-12-10T12:34:05.500Z,26.4
2017-12-10T12:36:05.223Z,26.5
2017-12-10T12:38:13.638Z,26.4
2017-12-10T12:40:05.913Z,26.4
2017-12-10T12:42:05.183Z,26.4
2017-12-10T12:44:05.991Z,26.5
2017-12-10T12:46:05.990Z,26.5
2017-12-10T12:48:08.289Z,26.5
2017-12-10T12:50:11.157Z,26.3
2017-12-10T12:52:05.141Z,26.5
2017-12-10T12:54:08.478Z,26.5
2017-12-10T12:56:08.359Z,26.5
2017-12-10T12:58:05.095Z,26.5
2017-12-10T13:00:10.914Z,26.5
2017-12-10T13:02:05.705Z,26.5
2017-12-10T13:04:14.021Z,26.5
2017-12-10T13:06:05.295Z,26.5
2017-12-10T13:08:08.209Z,26.5
2017-12-10T13:10:08.304Z,26.5
2017-12-10T13:12:05.265Z,26.5
2017-12-10T13:14:05.828Z,26.5
2017-12-10T13:16:05.612Z,26.5
2017-12-10T13:18:05.152Z,26.6
2017-12-10T13:20:09.488Z,26.4
2017-12-10T13:22:05.274Z,26.6
2017-12-10T13:24:06.012Z,26.6
2017-12-10T13:26:05.969Z,26.6
2017-12-10T13:28:05.701Z,26.6
2017-12-10T13:30:07.960Z,26.6
2017-12-10T13:32:05.717Z,26.6
2017-12-10T13:34:05.554Z,26.4
2017-12-10T13:36:05.441Z,26.4
2017-12-10T13:38:10.314Z,26.4
2017-12-10T13:40:07.603Z,26.4
2017-12-10T13:42:05.822Z,26.4
2017-12-10T13:44:05.633Z,26.6
2017-12-10T13:46:07.971Z,26.4
2017-12-10T13:48:10.773Z,26.5
2017-12-10T13:50:05.766Z,26.4
2017-12-10T13:52:05.124Z,26.6
2017-12-10T13:54:08.387Z,26.5
2017-12-10T13:56:05.180Z,26.5
2017-12-10T13:58:05.919Z,26.6
2017-12-10T14:00:05.272Z,26.6
2017-12-10T14:02:05.076Z,26.6
2017-12-10T14:04:05.879Z,26.6
2017-12-10T14:06:05.275Z,26.4
2017-12-10T14:08:06.018Z,26.6
2017-12-10T14:10:05.283Z,26.6
2017-12-10T14:12:05.179Z,26.6
2017-12-10T14:14:13.541Z,26.6
2017-12-10T14:16:05.259Z,26.6
2017-12-10T14:18:07.762Z,26.5
2017-12-10T14:20:05.575Z,26.6
2017-12-10T14:22:05.390Z,26.6
2017-12-10T14:24:05.170Z,26.6
2017-12-10T14:26:05.450Z,26.6
2017-12-10T14:28:05.255Z,26.6
2017-12-10T14:30:05.009Z,26.6
2017-12-10T14:32:05.776Z,26.5
2017-12-10T14:34:06.002Z,26.6
2017-12-10T14:36:05.780Z,26.6
2017-12-10T14:38:20.935Z,26.5
2017-12-10T14:40:05.831Z,26.6
2017-12-10T14:42:05.650Z,26.6
2017-12-10T14:44:05.401Z,26.6
2017-12-10T14:46:05.183Z,26.6
2017-12-10T14:48:08.544Z,26.5
2017-12-10T14:50:05.291Z,26.5
2017-12-10T14:52:10.096Z,26.5
2017-12-10T14:54:05.850Z,26.5
2017-12-10T14:56:10.665Z,26.5
2017-12-10T14:58:05.400Z,26.5
2017-12-10T15:00:05.184Z,26.5
2017-12-10T15:02:06.171Z,26.7
2017-12-10T15:04:05.118Z,26.7
2017-12-10T15:06:10.895Z,26.5
2017-12-10T15:08:05.802Z,26.6
2017-12-10T15:10:05.266Z,26.7
2017-12-10T15:12:05.558Z,26.7
2017-12-10T15:14:05.363Z,26.7
2017-12-10T15:16:05.082Z,26.5
2017-12-10T15:18:06.019Z,26.7
2017-12-10T15:20:05.315Z,26.5
2017-12-10T15:22:05.053Z,26.5
2017-12-10T15:24:05.781Z,26.5
2017-12-10T15:26:05.001Z,26.7
2017-12-10T15:28:05.263Z,26.7
2017-12-10T15:30:05.135Z,26.7
2017-12-10T15:32:05.490Z,26.7
2017-12-10T15:34:07.811Z,26.6
2017-12-10T15:36:10.926Z,26.6
2017-12-10T15:38:05.251Z,26.6
2017-12-10T15:40:06.000Z,26.5
2017-12-10T15:42:05.272Z,26.6
2017-12-10T15:44:08.127Z,26.6
2017-12-10T15:46:05.929Z,26.8
2017-12-10T15:48:10.779Z,26.7
2017-12-10T15:50:05.521Z,26.8
2017-12-10T15:52:10.322Z,26.8
2017-12-10T15:54:05.107Z,26.8
2017-12-10T15:56:05.441Z,26.8
2017-12-10T15:58:10.826Z,26.6
2017-12-10T16:00:05.525Z,26.8
2017-12-10T16:02:05.335Z,26.7
2017-12-10T16:04:05.135Z,26.8
2017-12-10T16:06:05.964Z,26.7
2017-12-10T16:08:05.795Z,26.7
2017-12-10T16:10:05.553Z,26.8
2017-12-10T16:12:05.304Z,26.7
2017-12-10T16:14:05.091Z,26.8
2017-12-10T16:16:05.907Z,26.7
2017-12-10T16:18:05.506Z,26.8
2017-12-10T16:20:05.811Z,26.7
2017-12-10T16:22:05.076Z,26.8
2017-12-10T16:24:05.916Z,26.7
2017-12-10T16:26:05.732Z,26.7
2017-12-10T16:28:05.488Z,26.8
2017-12-10T16:30:08.290Z,26.8
2017-12-10T16:32:06.089Z,26.7
2017-12-10T16:34:05.836Z,26.7
2017-12-10T16:36:05.588Z,26.7
2017-12-10T16:38:05.352Z,26.7
2017-12-10T16:40:10.130Z,26.7
2017-12-10T16:42:05.390Z,26.7
2017-12-10T16:44:05.355Z,26.7
2017-12-10T16:46:05.876Z,26.7
2017-12-10T16:48:08.170Z,26.7
2017-12-10T16:50:05.982Z,26.7
2017-12-10T16:52:10.846Z,26.7
2017-12-10T16:54:05.619Z,26.7
2017-12-10T16:56:05.949Z,26.7
2017-12-10T16:58:05.702Z,26.9
2017-12-10T17:00:06.074Z,26.7
2017-12-10T17:02:06.639Z,26.8
2017-12-10T17:04:11.348Z,26.7
2017-12-10T17:06:14.832Z,26.7
2017-12-10T17:08:07.558Z,26.8
2017-12-10T17:10:05.763Z,26.7
2017-12-10T17:12:09.100Z,26.8
2017-12-10T17:14:06.094Z,26.8
2017-12-10T17:16:07.822Z,26.8
2017-12-10T17:18:05.058Z,26.7
2017-12-10T17:20:06.096Z,26.7
2017-12-10T17:22:06.013Z,26.7
2017-12-10T17:24:06.995Z,26.8
2017-12-10T17:26:06.072Z,26.8
2017-12-10T17:28:07.137Z,27
2017-12-10T17:30:12.614Z,26.8
2017-12-10T17:32:05.702Z,26.8
2017-12-10T17:34:10.978Z,26.8
2017-12-10T17:36:08.290Z,26.8
2017-12-10T17:38:06.017Z,26.8
2017-12-10T17:40:16.043Z,27.1
2017-12-10T17:42:05.808Z,27.1
2017-12-10T17:44:13.548Z,27
2017-12-10T17:46:05.570Z,27
2017-12-10T17:48:05.516Z,27.1
2017-12-10T17:50:05.352Z,26.9
2017-12-10T17:52:06.533Z,27
2017-12-10T17:54:05.956Z,27
2017-12-10T17:56:09.686Z,27
2017-12-10T17:58:06.089Z,27
2017-12-10T18:00:07.646Z,27
2017-12-10T18:02:08.135Z,27
2017-12-10T18:04:06.987Z,27
2017-12-10T18:06:06.425Z,27
2017-12-10T18:08:05.596Z,27
2017-12-10T18:10:06.790Z,27
2017-12-10T18:12:10.612Z,27
2017-12-10T18:14:05.566Z,27
2017-12-10T18:16:07.373Z,27
2017-12-10T18:18:08.131Z,27
2017-12-10T18:20:05.203Z,27.1
2017-12-10T18:22:05.286Z,27.3
2017-12-10T18:24:12.791Z,27
2017-12-10T18:28:11.493Z,26.9
2017-12-10T18:30:05.398Z,27
2017-12-10T18:32:08.827Z,27.1
2017-12-10T18:34:08.490Z,26.9
2017-12-10T18:36:06.103Z,27.1
2017-12-10T18:38:06.219Z,27
2017-12-10T18:40:05.851Z,27.2
2017-12-10T18:42:08.352Z,27.2
2017-12-10T18:44:05.854Z,27.2
2017-12-10T18:46:05.129Z,27.4
2017-12-10T18:48:06.990Z,27.4
2017-12-10T18:50:06.569Z,27.5
2017-12-10T18:52:05.580Z,27.6
2017-12-10T18:54:06.241Z,27.7
2017-12-10T18:56:05.992Z,27.6
2017-12-10T18:58:08.146Z,28
2017-12-10T19:00:07.619Z,28.2
2017-12-10T19:02:05.910Z,28.1
2017-12-10T19:04:06.106Z,27.8
2017-12-10T19:06:08.710Z,27.9
2017-12-10T19:08:10.737Z,27.8
2017-12-10T19:10:16.929Z,27.8
2017-12-10T19:14:24.598Z,28.1
2017-12-10T19:16:38.661Z,28
2017-12-10T19:18:05.959Z,28
2017-12-10T19:20:05.892Z,28.1
2017-12-10T19:22:05.660Z,28.1
2017-12-10T19:24:07.377Z,28
2017-12-10T19:26:12.292Z,28
2017-12-10T19:28:05.469Z,28.4
2017-12-10T19:30:08.922Z,28.2
2017-12-10T19:32:05.712Z,28.3
2017-12-10T19:34:06.093Z,28.2
2017-12-10T19:36:08.404Z,28.3
2017-12-10T19:38:08.252Z,28.4
2017-12-10T19:40:14.625Z,28.3
2017-12-10T19:42:06.369Z,28.2
2017-12-10T19:44:05.095Z,28.4
2017-12-10T19:46:05.188Z,28.2
2017-12-10T19:48:05.546Z,28.2
2017-12-10T19:50:05.285Z,28.4
2017-12-10T19:52:08.335Z,28.5
2017-12-10T19:54:07.641Z,28.4
2017-12-10T19:56:09.424Z,28.2
2017-12-10T19:58:06.897Z,28.5
2017-12-10T20:00:08.909Z,28.3
2017-12-10T20:02:08.854Z,28.5
2017-12-10T20:04:10.401Z,28.3
2017-12-10T20:06:08.405Z,28.3
2017-12-10T20:08:05.455Z,28.3
2017-12-10T20:10:08.063Z,28.4
2017-12-10T20:12:05.882Z,28.3
2017-12-10T20:14:09.786Z,28.3
2017-12-10T20:16:10.875Z,28.5
2017-12-10T20:18:05.867Z,28.3
2017-12-10T20:20:08.657Z,28.5
2017-12-10T20:22:05.701Z,28.5
2017-12-10T20:24:08.302Z,28.5
2017-12-10T20:26:06.543Z,28.5
2017-12-10T20:28:09.175Z,28.5
2017-12-10T20:30:06.664Z,28.5
2017-12-10T20:32:05.706Z,28.5
2017-12-10T20:34:12.944Z,28.7
2017-12-10T20:36:05.305Z,28.5
2017-12-10T20:38:07.596Z,28.6
2017-12-10T20:40:05.684Z,28.6
2017-12-10T20:42:06.378Z,28.7
2017-12-10T20:44:09.755Z,28.7
2017-12-10T20:46:23.259Z,28.8
2017-12-10T20:48:05.876Z,28.8
2017-12-10T20:50:09.090Z,28.7
2017-12-10T20:52:06.116Z,28.9
2017-12-10T20:54:08.448Z,28.7
2017-12-10T20:56:05.407Z,28.7
2017-12-10T20:58:07.754Z,28.7
2017-12-10T21:00:05.451Z,28.7
2017-12-10T21:02:07.785Z,28.7
2017-12-10T21:04:05.079Z,28.7
2017-12-10T21:06:05.096Z,28.7
2017-12-10T21:08:06.127Z,28.7
2017-12-10T21:10:10.659Z,28.8
2017-12-10T21:12:05.415Z,28.8
2017-12-10T21:14:15.098Z,28.8
2017-12-10T21:16:05.873Z,28.8
2017-12-10T21:18:06.078Z,28.8
2017-12-10T21:20:06.367Z,28.6
2017-12-10T21:22:05.386Z,28.7
2017-12-10T21:24:08.766Z,28.7
2017-12-10T21:26:08.955Z,28.7
2017-12-10T21:28:05.217Z,28.7
2017-12-10T21:30:08.767Z,28.7
2017-12-10T21:32:05.318Z,28.8
2017-12-10T21:34:05.266Z,28.7
2017-12-10T21:36:10.840Z,28.8
2017-12-10T21:38:05.925Z,28.8
2017-12-10T21:40:11.616Z,28.8
2017-12-10T21:42:11.184Z,28.8
2017-12-10T21:44:06.235Z,28.8
2017-12-10T21:46:12.075Z,28.7
2017-12-10T21:48:08.376Z,28.8
2017-12-10T21:50:07.988Z,28.8
2017-12-10T21:52:06.044Z,28.8
2017-12-10T21:54:05.110Z,28.8
2017-12-10T21:56:05.871Z,28.8
2017-12-10T21:58:08.390Z,28.8
2017-12-10T22:00:05.347Z,28.8
2017-12-10T22:02:05.185Z,28.8
2017-12-10T22:04:05.456Z,28.8
2017-12-10T22:06:05.286Z,28.8
2017-12-10T22:08:05.983Z,28.8
2017-12-10T22:10:12.499Z,28.8
2017-12-10T22:12:07.867Z,28.8
2017-12-10T22:14:06.635Z,28.8
2017-12-10T22:16:05.747Z,28.8
2017-12-10T22:18:05.970Z,28.9
2017-12-10T22:20:13.582Z,29.1
2017-12-10T22:22:16.811Z,29
2017-12-10T22:24:06.038Z,29
2017-12-10T22:26:07.180Z,29
2017-12-10T22:28:05.642Z,29
2017-12-10T22:30:08.474Z,29
2017-12-10T22:32:07.623Z,29.1
2017-12-10T22:34:05.536Z,29.1
2017-12-10T22:36:05.391Z,29
2017-12-10T22:38:07.695Z,29
2017-12-10T22:40:06.520Z,29
2017-12-10T22:42:13.131Z,29
2017-12-10T22:44:05.324Z,29
2017-12-10T22:46:05.627Z,29.1
2017-12-10T22:48:08.554Z,29.1
2017-12-10T22:50:06.775Z,29.1
2017-12-10T22:52:05.154Z,29
2017-12-10T22:54:05.923Z,29
2017-12-10T22:56:07.303Z,28.9
2017-12-10T22:58:05.798Z,28.8
2017-12-10T23:00:05.999Z,29
2017-12-10T23:02:08.573Z,29
2017-12-10T23:04:07.948Z,28.9
2017-12-10T23:06:05.752Z,28.7
2017-12-10T23:08:08.195Z,28.7
2017-12-10T23:10:05.538Z,28.8
2017-12-10T23:12:05.312Z,28.8
2017-12-10T23:14:05.091Z,28.6
2017-12-10T23:16:05.880Z,28.7
2017-12-10T23:18:05.892Z,28.7
2017-12-10T23:20:05.643Z,28.7
2017-12-10T23:22:10.480Z,28.7
2017-12-10T23:24:13.346Z,28.6
2017-12-10T23:26:05.123Z,28.6
2017-12-10T23:28:05.893Z,28.6
2017-12-10T23:30:08.297Z,28.6
2017-12-10T23:32:05.304Z,28.6
2017-12-10T23:34:05.074Z,28.7
2017-12-10T23:36:10.946Z,28.6
2017-12-10T23:38:13.341Z,28.6
2017-12-10T23:40:07.587Z,28.4
2017-12-10T23:42:05.322Z,28.5
2017-12-10T23:44:05.062Z,28.5
2017-12-10T23:46:05.919Z,28.4
2017-12-10T23:48:05.235Z,28.5
2017-12-10T23:50:06.114Z,28.5
2017-12-10T23:52:05.900Z,28.3
2017-12-10T23:54:05.610Z,28.5
2017-12-10T23:56:05.639Z,28.3
2017-12-10T23:58:07.977Z,28.3
